Time;durP1;ratioP1;P1;durP2;ratioP2;P2;SDS_P1;SDS_P2;PMS_P1;PMS_P2;Temp;Humidity;BMP_temperature;BMP_pressure;BME280_temperature;BME280_humidity;BME280_pressure;Samples;Min_cycle;Max_cycle;Signal;HPM_P1;HPM_P2
2021/03/31 00:00:49;;;;;;;12.87;2.40;;;21.30;99.90;;;;;;5045062;28;20177;-71
2021/03/31 00:03:19;;;;;;;15.07;3.37;;;21.30;99.90;;;;;;5043478;28;20572;-71
2021/03/31 00:05:46;;;;;;;14.33;2.80;;;21.20;99.90;;;;;;5051681;28;20212;-71
2021/03/31 00:08:14;;;;;;;16.67;3.27;;;21.30;99.90;;;;;;5052699;28;20209;-71
2021/03/31 00:10:48;;;;;;;15.37;2.27;;;21.30;99.90;;;;;;5051458;28;20226;-71
2021/03/31 00:13:16;;;;;;;13.60;2.53;;;21.40;99.90;;;;;;5034688;28;20522;-71
2021/03/31 00:15:44;;;;;;;12.57;2.63;;;21.50;99.90;;;;;;5054128;28;20184;-70
2021/03/31 00:18:12;;;;;;;8.60;2.43;;;21.50;99.90;;;;;;5053926;28;20282;-71
2021/03/31 00:20:41;;;;;;;11.67;2.37;;;21.70;99.90;;;;;;5053164;28;20275;-69
2021/03/31 00:23:10;;;;;;;17.93;2.73;;;21.80;99.90;;;;;;5053361;28;20199;-70
2021/03/31 00:25:38;;;;;;;14.57;2.57;;;21.90;99.90;;;;;;5055375;28;20188;-70
2021/03/31 00:28:07;;;;;;;16.47;2.83;;;21.80;99.90;;;;;;5054463;28;20180;-70
2021/03/31 00:30:35;;;;;;;9.70;2.20;;;21.90;99.90;;;;;;5036745;28;20254;-69
2021/03/31 00:33:03;;;;;;;11.70;2.30;;;21.90;99.90;;;;;;5054468;28;20543;-71
2021/03/31 00:35:33;;;;;;;14.73;2.90;;;22.10;99.90;;;;;;5054453;28;20206;-71
2021/03/31 00:38:01;;;;;;;15.33;2.33;;;22.10;99.90;;;;;;5054990;28;20192;-71
2021/03/31 00:40:39;;;;;;;12.57;2.33;;;22.10;99.90;;;;;;5054177;28;20168;-71
2021/03/31 00:43:07;;;;;;;11.50;2.27;;;21.90;99.90;;;;;;5054245;28;20550;-70
2021/03/31 00:45:34;;;;;;;12.87;2.83;;;22.00;99.90;;;;;;5054415;28;20250;-69
2021/03/31 00:48:02;;;;;;;15.00;2.50;;;22.10;99.90;;;;;;5055006;28;20188;-70
2021/03/31 00:50:30;;;;;;;10.70;2.20;;;22.20;99.90;;;;;;5053832;28;20172;-69
2021/03/31 00:52:59;;;;;;;14.70;2.83;;;22.30;99.90;;;;;;5054861;28;20184;-70
2021/03/31 00:55:30;;;;;;;8.13;1.77;;;22.40;99.90;;;;;;5054299;28;20172;-71
2021/03/31 00:57:59;;;;;;;10.67;2.57;;;22.40;99.90;;;;;;5053755;28;20215;-70
2021/03/31 01:00:26;;;;;;;10.27;1.93;;;22.40;99.90;;;;;;5053966;28;20176;-70
2021/03/31 01:02:54;;;;;;;14.70;3.07;;;22.30;99.90;;;;;;5054532;28;20261;-72
2021/03/31 01:05:25;;;;;;;13.53;3.07;;;22.60;99.90;;;;;;5054343;28;20646;-71
2021/03/31 01:07:53;;;;;;;9.73;2.07;;;22.80;99.90;;;;;;5054490;28;20182;-73
2021/03/31 01:10:45;;;;;;;14.10;2.63;;;23.00;99.90;;;;;;5054313;28;20829;-70
2021/03/31 01:13:18;;;;;;;13.43;2.20;;;23.00;99.80;;;;;;5044315;28;20219;-70
2021/03/31 01:16:05;;;;;;;6.33;2.00;;;22.90;99.90;;;;;;5050841;28;20188;-70
2021/03/31 01:18:53;;;;;;;12.67;2.20;;;22.70;99.90;;;;;;5054074;28;20585;-70
2021/03/31 01:21:23;;;;;;;13.87;2.27;;;22.80;99.90;;;;;;5052614;28;20172;-70
2021/03/31 01:24:06;;;;;;;6.90;2.07;;;23.00;99.60;;;;;;5050664;28;20569;-71
2021/03/31 01:26:45;;;;;;;12.43;2.20;;;23.00;99.10;;;;;;5054162;28;20179;-71
2021/03/31 01:29:21;;;;;;;9.07;2.00;;;23.20;99.30;;;;;;5053828;28;20179;-72
2021/03/31 01:32:18;;;;;;;11.97;3.23;;;23.10;98.70;;;;;;5054205;28;20525;-69
2021/03/31 01:34:57;;;;;;;9.33;2.00;;;23.00;98.50;;;;;;5045441;28;20173;-70
2021/03/31 01:37:29;;;;;;;8.03;2.10;;;23.40;98.40;;;;;;5040120;28;20203;-71
2021/03/31 01:39:58;;;;;;;13.13;2.97;;;23.40;97.80;;;;;;5046716;28;20263;-70
2021/03/31 01:42:29;;;;;;;11.20;2.80;;;23.40;97.20;;;;;;5046108;28;20210;-70
2021/03/31 01:45:06;;;;;;;9.70;1.87;;;23.40;97.40;;;;;;5043910;28;20236;-71
2021/03/31 01:47:42;;;;;;;6.90;2.20;;;23.50;97.20;;;;;;5043163;28;20178;-70
2021/03/31 01:50:11;;;;;;;15.10;2.27;;;23.50;97.20;;;;;;5045760;28;20258;-71
2021/03/31 01:52:40;;;;;;;9.87;2.37;;;23.60;97.10;;;;;;5046498;28;20207;-70
2021/03/31 01:55:08;;;;;;;7.87;2.17;;;23.50;96.10;;;;;;5049719;28;20176;-70
2021/03/31 01:57:38;;;;;;;11.93;2.03;;;23.60;95.80;;;;;;5050505;28;20241;-72
2021/03/31 02:00:07;;;;;;;4.30;1.40;;;23.60;95.30;;;;;;5035407;28;20622;-71
2021/03/31 02:02:35;;;;;;;9.77;2.10;;;23.90;94.80;;;;;;5047107;28;20231;-72
2021/03/31 02:05:04;;;;;;;7.87;2.10;;;23.90;94.40;;;;;;5043221;28;20184;-72
2021/03/31 02:07:32;;;;;;;7.30;1.80;;;24.10;95.10;;;;;;5048758;28;20180;-71
2021/03/31 02:10:00;;;;;;;13.13;2.07;;;24.10;94.30;;;;;;5042642;28;20187;-69
2021/03/31 02:12:29;;;;;;;6.60;1.90;;;24.10;94.20;;;;;;5046455;28;20202;-71
2021/03/31 02:14:56;;;;;;;7.00;2.00;;;24.30;93.90;;;;;;5043759;28;20543;-69
2021/03/31 02:17:26;;;;;;;10.50;1.80;;;24.00;93.90;;;;;;5046092;28;20183;-69
2021/03/31 02:19:55;;;;;;;4.53;1.53;;;24.20;93.60;;;;;;5040690;28;20188;-71
2021/03/31 02:22:24;;;;;;;8.60;1.53;;;24.50;93.50;;;;;;5053033;28;20180;-71
2021/03/31 02:24:53;;;;;;;6.90;1.70;;;24.60;93.20;;;;;;5053163;28;20200;-70
2021/03/31 02:27:21;;;;;;;6.07;1.93;;;24.60;93.10;;;;;;5048892;28;20168;-70
2021/03/31 02:29:50;;;;;;;9.60;1.70;;;24.70;92.90;;;;;;5050449;28;20184;-70
2021/03/31 02:32:21;;;;;;;12.57;1.60;;;24.70;92.90;;;;;;5051403;28;20187;-69
2021/03/31 02:34:53;;;;;;;8.83;1.47;;;25.20;92.80;;;;;;5042868;28;20184;-71
2021/03/31 02:37:21;;;;;;;10.63;1.77;;;25.60;91.60;;;;;;5049436;28;20218;-71
2021/03/31 02:39:51;;;;;;;14.67;1.93;;;25.60;90.90;;;;;;5050715;28;20180;-71
2021/03/31 02:42:21;;;;;;;9.40;2.03;;;25.40;91.60;;;;;;5050053;28;20184;-72
2021/03/31 02:44:52;;;;;;;7.90;1.37;;;25.80;91.90;;;;;;5051842;28;20287;-71
2021/03/31 02:47:26;;;;;;;8.30;1.80;;;25.60;90.20;;;;;;5052016;28;20176;-71
2021/03/31 02:50:01;;;;;;;8.00;2.07;;;25.50;90.40;;;;;;5052045;28;20187;-71
2021/03/31 02:52:31;;;;;;;12.77;2.07;;;25.80;90.00;;;;;;5052364;28;20210;-71
2021/03/31 02:55:00;;;;;;;5.43;1.70;;;26.00;90.30;;;;;;5047368;28;20637;-71
2021/03/31 02:57:28;;;;;;;6.10;1.50;;;25.80;90.10;;;;;;5051890;28;20180;-69
2021/03/31 02:59:57;;;;;;;5.27;1.57;;;25.80;89.50;;;;;;5048586;28;20184;-70
2021/03/31 03:02:25;;;;;;;6.23;1.60;;;25.70;90.10;;;;;;5048961;28;20176;-70
2021/03/31 03:04:53;;;;;;;6.03;1.53;;;25.70;89.30;;;;;;5052074;28;20191;-70
2021/03/31 03:07:20;;;;;;;6.87;1.90;;;25.90;89.20;;;;;;5050860;28;20255;-69
2021/03/31 03:09:48;;;;;;;6.13;2.10;;;25.70;88.10;;;;;;5051452;28;20205;-69
2021/03/31 03:12:17;;;;;;;7.47;1.57;;;26.00;87.70;;;;;;5051869;28;20197;-70
2021/03/31 03:14:47;;;;;;;9.07;1.93;;;26.20;85.00;;;;;;5037218;28;20190;-71
2021/03/31 03:17:16;;;;;;;11.07;1.90;;;26.00;84.70;;;;;;5051656;28;20175;-70
2021/03/31 03:19:44;;;;;;;8.57;1.53;;;26.00;86.50;;;;;;5034425;28;20180;-70
2021/03/31 03:22:14;;;;;;;5.97;1.40;;;26.40;86.30;;;;;;5051854;28;20187;-71
2021/03/31 03:24:48;;;;;;;7.20;1.30;;;26.60;84.00;;;;;;5051799;28;20180;-70
2021/03/31 03:27:19;;;;;;;5.27;1.40;;;26.70;82.50;;;;;;5052115;28;20179;-71
2021/03/31 03:29:48;;;;;;;7.50;1.57;;;26.80;81.90;;;;;;5050367;28;20806;-70
2021/03/31 03:32:17;;;;;;;12.53;1.73;;;26.60;81.60;;;;;;5035045;28;20186;-71
2021/03/31 03:34:46;;;;;;;7.67;1.37;;;26.70;78.90;;;;;;5049138;28;20212;-70
2021/03/31 03:37:16;;;;;;;7.80;2.10;;;26.80;75.90;;;;;;5051458;28;20581;-71
2021/03/31 03:39:44;;;;;;;8.50;1.63;;;26.90;76.20;;;;;;5052162;28;20184;-71
2021/03/31 03:42:12;;;;;;;3.60;0.90;;;26.90;76.60;;;;;;5051379;28;20183;-70
2021/03/31 03:44:39;;;;;;;3.83;1.20;;;27.10;73.70;;;;;;5055571;28;20234;-71
2021/03/31 03:47:08;;;;;;;3.83;1.10;;;27.30;70.90;;;;;;5054587;28;20542;-71
2021/03/31 03:49:39;;;;;;;7.17;1.53;;;27.80;71.50;;;;;;5052243;28;20203;-70
2021/03/31 03:52:07;;;;;;;4.07;1.20;;;28.00;73.40;;;;;;5055452;28;20218;-71
2021/03/31 03:54:35;;;;;;;6.10;1.40;;;27.90;70.30;;;;;;5052203;28;20531;-72
2021/03/31 03:57:02;;;;;;;9.00;1.47;;;28.30;72.00;;;;;;5054791;28;20275;-72
2021/03/31 03:59:30;;;;;;;4.70;1.07;;;28.50;70.10;;;;;;5053660;28;20169;-71
2021/03/31 04:01:58;;;;;;;5.83;1.30;;;28.50;69.00;;;;;;5041886;28;20740;-71
2021/03/31 04:04:26;;;;;;;6.47;1.30;;;28.30;69.60;;;;;;5051986;28;20238;-71
2021/03/31 04:06:59;;;;;;;8.27;1.60;;;28.30;68.70;;;;;;5048144;28;20199;-72
2021/03/31 04:09:26;;;;;;;5.30;1.40;;;27.90;69.60;;;;;;5052378;28;20222;-70
2021/03/31 04:11:54;;;;;;;8.83;1.73;;;28.40;68.80;;;;;;5051814;28;20521;-70
2021/03/31 04:14:22;;;;;;;9.67;1.87;;;28.50;69.40;;;;;;5054898;28;20634;-71
2021/03/31 04:16:50;;;;;;;7.67;1.43;;;28.90;68.80;;;;;;5052404;28;20713;-71
2021/03/31 04:19:18;;;;;;;4.93;0.93;;;28.90;68.00;;;;;;5055209;28;20263;-71
2021/03/31 04:21:46;;;;;;;6.20;1.40;;;28.70;65.00;;;;;;5054956;28;20310;-70
2021/03/31 04:24:16;;;;;;;5.23;1.23;;;28.70;65.90;;;;;;5052668;28;20286;-70
2021/03/31 04:26:45;;;;;;;7.22;1.35;;;28.50;65.60;;;;;;5054368;28;20237;-70
2021/03/31 04:29:13;;;;;;;4.38;1.20;;;28.70;66.00;;;;;;5052193;28;20249;-71
2021/03/31 04:31:41;;;;;;;8.20;1.40;;;29.50;64.60;;;;;;5049316;28;20173;-72
2021/03/31 04:34:10;;;;;;;8.85;1.70;;;29.20;64.50;;;;;;5049968;28;20191;-72
2021/03/31 04:36:37;;;;;;;11.85;1.50;;;28.90;63.90;;;;;;5047016;28;20319;-72
2021/03/31 04:39:06;;;;;;;4.70;1.60;;;29.00;64.50;;;;;;5050414;28;20283;-71
2021/03/31 04:41:34;;;;;;;9.13;1.48;;;29.20;65.40;;;;;;5050744;28;20182;-72
2021/03/31 04:44:02;;;;;;;8.27;1.90;;;29.90;63.70;;;;;;5052522;28;20211;-71
2021/03/31 04:46:30;;;;;;;7.30;1.55;;;30.20;62.90;;;;;;5049522;28;20227;-72
2021/03/31 04:48:57;;;;;;;5.88;1.80;;;30.10;61.60;;;;;;5050961;28;20703;-71
2021/03/31 04:51:24;;;;;;;5.32;1.08;;;29.60;60.90;;;;;;5048478;28;20227;-70
2021/03/31 04:53:52;;;;;;;7.37;1.77;;;29.70;60.80;;;;;;5047625;28;20179;-71
2021/03/31 04:56:19;;;;;;;6.07;1.17;;;29.20;60.10;;;;;;5052043;28;20262;-71
2021/03/31 04:58:47;;;;;;;5.18;1.30;;;29.70;60.50;;;;;;5047794;28;20177;-70
2021/03/31 05:01:14;;;;;;;5.93;1.25;;;29.60;59.10;;;;;;5050009;28;20188;-71
2021/03/31 05:03:41;;;;;;;9.52;1.63;;;29.20;60.80;;;;;;5042988;28;20737;-69
2021/03/31 05:06:09;;;;;;;8.10;1.83;;;29.30;62.50;;;;;;5045945;28;20187;-70
2021/03/31 05:08:36;;;;;;;4.40;1.30;;;28.90;63.10;;;;;;5051873;28;20270;-71
2021/03/31 05:11:04;;;;;;;8.80;2.07;;;28.80;62.80;;;;;;5051089;28;20241;-71
2021/03/31 05:13:31;;;;;;;4.07;1.40;;;28.70;63.00;;;;;;5052773;28;20183;-71
2021/03/31 05:15:58;;;;;;;7.75;1.40;;;28.50;63.40;;;;;;5054007;28;20171;-71
2021/03/31 05:18:26;;;;;;;8.73;1.60;;;28.60;63.50;;;;;;5053863;28;20516;-70
2021/03/31 05:20:53;;;;;;;8.43;1.83;;;29.20;64.10;;;;;;5053656;28;20187;-71
2021/03/31 05:23:21;;;;;;;4.63;1.77;;;29.50;63.30;;;;;;5054142;28;20207;-71
2021/03/31 05:25:48;;;;;;;7.07;1.57;;;29.80;63.40;;;;;;5036432;28;20176;-70
2021/03/31 05:28:15;;;;;;;6.38;1.77;;;29.40;64.20;;;;;;5053696;28;20580;-71
2021/03/31 05:30:43;;;;;;;5.70;1.42;;;28.80;63.90;;;;;;5054283;28;20259;-70
2021/03/31 05:33:10;;;;;;;4.97;1.60;;;29.10;64.30;;;;;;5053641;28;20203;-71
2021/03/31 05:35:37;;;;;;;9.77;1.80;;;29.20;64.40;;;;;;5050063;28;20263;-71
2021/03/31 05:38:05;;;;;;;13.43;2.50;;;28.80;63.50;;;;;;5049145;28;20217;-70
2021/03/31 05:40:33;;;;;;;5.23;1.30;;;28.90;63.20;;;;;;5053470;28;20168;-71
2021/03/31 05:43:01;;;;;;;4.77;1.30;;;29.30;63.10;;;;;;5052776;28;20206;-71
2021/03/31 05:45:29;;;;;;;7.13;1.30;;;29.20;62.30;;;;;;5053509;28;20224;-70
2021/03/31 05:47:58;;;;;;;7.00;1.53;;;28.30;62.80;;;;;;5052799;28;20176;-71
2021/03/31 05:50:26;;;;;;;3.77;1.30;;;28.60;63.30;;;;;;5053432;28;20172;-71
2021/03/31 05:52:54;;;;;;;5.55;1.45;;;28.40;62.90;;;;;;5053782;28;20184;-71
2021/03/31 05:55:21;;;;;;;5.83;1.10;;;28.80;62.70;;;;;;5052985;28;20172;-70
2021/03/31 05:57:49;;;;;;;7.77;1.93;;;28.50;62.60;;;;;;5053379;28;20204;-70
2021/03/31 06:00:20;;;;;;;5.20;1.97;;;28.30;62.80;;;;;;5052986;28;20172;-71
2021/03/31 06:02:49;;;;;;;4.27;1.20;;;28.40;62.10;;;;;;5053171;28;20208;-72
2021/03/31 06:05:18;;;;;;;6.27;1.40;;;28.20;62.50;;;;;;5047386;28;20565;-70
2021/03/31 06:07:50;;;;;;;10.77;1.60;;;28.00;62.30;;;;;;5048657;28;20523;-71
2021/03/31 06:10:21;;;;;;;4.97;1.17;;;28.00;61.90;;;;;;5048361;28;20184;-71
2021/03/31 06:12:57;;;;;;;6.77;1.30;;;27.80;62.10;;;;;;5052840;28;20211;-71
2021/03/31 06:15:34;;;;;;;9.23;1.77;;;28.30;61.00;;;;;;5052701;28;20671;-70
2021/03/31 06:18:17;;;;;;;4.03;1.00;;;28.40;60.40;;;;;;5042690;28;20228;-70
2021/03/31 06:23:49;;;;;;;4.67;1.17;;;28.00;60.10;;;;;;5044657;28;20708;-70
2021/03/31 06:26:23;;;;;;;4.73;1.30;;;27.80;58.00;;;;;;5048017;28;20206;-69
2021/03/31 06:29:10;;;;;;;2.37;0.80;;;27.70;59.10;;;;;;5052297;28;20259;-71
2021/03/31 06:31:47;;;;;;;3.33;1.23;;;27.60;60.70;;;;;;5031598;28;20543;-70
2021/03/31 06:34:22;;;;;;;3.20;1.10;;;28.40;57.80;;;;;;5044029;28;20179;-70
2021/03/31 06:36:55;;;;;;;5.80;1.37;;;28.30;58.00;;;;;;5052510;28;20172;-70
2021/03/31 06:39:37;;;;;;;4.77;0.90;;;28.10;58.30;;;;;;5052590;28;20172;-69
2021/03/31 06:42:17;;;;;;;3.33;0.80;;;28.00;58.50;;;;;;5052434;28;20198;-70
2021/03/31 06:45:00;;;;;;;3.30;0.93;;;27.90;58.90;;;;;;5051204;28;20337;-71
2021/03/31 06:50:37;;;;;;;2.83;1.10;;;27.90;60.70;;;;;;5009635;28;20193;-70
2021/03/31 06:53:05;;;;;;;6.43;1.20;;;27.60;62.70;;;;;;5042609;28;20669;-70
2021/03/31 06:55:33;;;;;;;4.13;1.13;;;27.90;63.70;;;;;;5048429;28;20193;-71
2021/03/31 06:58:11;;;;;;;10.00;1.47;;;27.70;64.40;;;;;;5047130;28;20237;-71
2021/03/31 07:00:39;;;;;;;6.03;1.60;;;27.30;65.20;;;;;;5050249;28;20750;-71
2021/03/31 07:03:08;;;;;;;3.10;1.30;;;26.80;66.60;;;;;;5047612;28;20208;-71
2021/03/31 07:05:39;;;;;;;4.60;1.37;;;26.50;67.20;;;;;;5051427;28;20553;-71
2021/03/31 07:08:12;;;;;;;6.27;1.50;;;26.40;68.20;;;;;;5049092;28;20172;-72
2021/03/31 07:10:52;;;;;;;5.03;1.40;;;26.30;68.90;;;;;;5047514;28;20187;-71
2021/03/31 07:13:31;;;;;;;5.93;1.30;;;26.10;68.30;;;;;;5049638;28;20203;-71
2021/03/31 07:16:00;;;;;;;6.30;1.10;;;26.00;69.70;;;;;;5048657;28;20192;-71
2021/03/31 07:18:29;;;;;;;4.40;1.10;;;25.80;70.00;;;;;;5051938;28;20206;-71
2021/03/31 07:20:57;;;;;;;5.00;1.40;;;25.50;71.10;;;;;;5051849;28;20342;-71
2021/03/31 07:23:26;;;;;;;4.70;1.23;;;25.70;71.70;;;;;;5049577;28;20228;-71
2021/03/31 07:25:54;;;;;;;7.57;1.33;;;25.40;72.30;;;;;;5050944;28;20226;-71
2021/03/31 07:28:25;;;;;;;6.17;1.73;;;24.90;73.90;;;;;;5051109;28;20191;-72
2021/03/31 07:30:53;;;;;;;6.57;1.53;;;24.40;76.20;;;;;;5050716;28;20191;-71
2021/03/31 07:33:25;;;;;;;4.43;1.70;;;24.00;77.80;;;;;;5050857;28;20180;-70
2021/03/31 07:35:53;;;;;;;9.23;1.50;;;23.70;78.60;;;;;;5050037;28;20192;-71
2021/03/31 07:38:23;;;;;;;3.07;1.37;;;23.40;80.00;;;;;;5050313;28;20536;-71
2021/03/31 07:40:52;;;;;;;6.10;1.30;;;23.00;82.00;;;;;;5050900;28;20217;-71
2021/03/31 07:43:46;;;;;;;8.47;1.80;;;22.80;83.90;;;;;;5051700;28;20250;-70
2021/03/31 07:46:24;;;;;;;5.23;1.63;;;22.60;86.00;;;;;;5048740;28;20225;-70
2021/03/31 07:48:51;;;;;;;9.17;1.53;;;22.50;87.80;;;;;;5051914;28;20207;-72
2021/03/31 07:51:22;;;;;;;8.40;2.13;;;22.30;89.30;;;;;;5051553;28;20688;-70
2021/03/31 07:53:51;;;;;;;7.97;1.73;;;22.20;90.10;;;;;;5051062;28;20192;-71
2021/03/31 07:56:27;;;;;;;7.47;1.73;;;22.10;90.70;;;;;;5051544;28;20180;-70
2021/03/31 07:59:04;;;;;;;5.87;1.37;;;21.90;91.20;;;;;;5051039;28;20267;-72
2021/03/31 08:01:49;;;;;;;6.17;1.60;;;21.90;91.80;;;;;;5040082;28;20171;-71
2021/03/31 08:04:19;;;;;;;8.40;2.13;;;21.70;92.30;;;;;;5051518;28;20211;-70
2021/03/31 08:06:49;;;;;;;7.47;1.30;;;21.70;92.60;;;;;;5051875;28;20183;-70
2021/03/31 08:09:19;;;;;;;6.40;1.70;;;21.60;92.90;;;;;;5039753;28;20271;-70
2021/03/31 08:11:49;;;;;;;9.80;1.90;;;21.50;92.70;;;;;;5042240;28;20194;-69
2021/03/31 08:14:36;;;;;;;6.50;1.33;;;21.40;92.60;;;;;;5051419;28;20172;-70
2021/03/31 08:17:13;;;;;;;4.73;1.40;;;21.40;93.00;;;;;;5050624;28;20202;-71
2021/03/31 08:19:46;;;;;;;5.63;1.30;;;21.30;92.60;;;;;;5047273;28;20184;-71
2021/03/31 08:22:37;;;;;;;4.23;2.00;;;21.20;92.80;;;;;;5033555;28;20187;-71
2021/03/31 08:25:21;;;;;;;5.20;2.37;;;21.30;92.80;;;;;;5051518;28;20638;-71
2021/03/31 08:27:59;;;;;;;7.00;2.77;;;21.20;92.90;;;;;;5043073;28;20526;-71
2021/03/31 08:30:28;;;;;;;9.87;2.07;;;21.30;93.00;;;;;;5043787;28;20649;-71
2021/03/31 08:32:56;;;;;;;8.53;2.00;;;21.30;93.00;;;;;;5046437;28;20187;-72
2021/03/31 08:35:28;;;;;;;6.87;2.10;;;21.20;92.80;;;;;;5047279;28;20172;-71
2021/03/31 08:37:56;;;;;;;8.43;2.10;;;21.10;92.80;;;;;;5053150;28;20188;-71
2021/03/31 08:40:29;;;;;;;5.67;1.73;;;21.00;93.00;;;;;;5055703;28;20195;-72
2021/03/31 08:43:00;;;;;;;6.23;2.17;;;21.00;93.40;;;;;;5054256;28;20208;-72
2021/03/31 08:45:52;;;;;;;6.40;2.43;;;21.00;93.70;;;;;;5054231;28;20220;-72
2021/03/31 08:48:45;;;;;;;8.83;2.40;;;20.90;94.30;;;;;;5053571;28;20182;-72
2021/03/31 08:51:18;;;;;;;5.37;1.87;;;20.90;94.60;;;;;;5054449;28;20524;-71
2021/03/31 08:53:46;;;;;;;11.87;2.33;;;20.80;95.00;;;;;;5053770;28;20179;-71
2021/03/31 08:56:17;;;;;;;9.60;2.23;;;20.70;95.60;;;;;;5053354;28;20208;-71
2021/03/31 08:58:46;;;;;;;10.80;2.73;;;20.70;96.30;;;;;;5053911;28;20271;-71
2021/03/31 09:01:23;;;;;;;8.83;2.33;;;20.70;97.10;;;;;;5054492;28;20212;-71
2021/03/31 09:03:51;;;;;;;7.83;2.77;;;20.70;97.60;;;;;;5051797;28;20226;-71
2021/03/31 09:06:19;;;;;;;5.40;2.10;;;20.60;98.30;;;;;;5045623;28;20178;-71
2021/03/31 09:08:47;;;;;;;6.53;1.60;;;20.60;99.10;;;;;;5054659;28;20171;-71
2021/03/31 09:11:20;;;;;;;6.40;2.23;;;20.60;99.80;;;;;;5054180;28;20263;-71
2021/03/31 09:13:47;;;;;;;6.53;2.07;;;20.50;99.90;;;;;;5054160;28;20192;-71
2021/03/31 09:16:15;;;;;;;9.40;2.10;;;20.60;99.90;;;;;;5051104;28;20187;-72
2021/03/31 09:18:43;;;;;;;12.07;2.07;;;20.50;99.90;;;;;;5051841;28;20211;-71
2021/03/31 09:21:12;;;;;;;8.83;2.90;;;20.50;99.90;;;;;;5036181;28;20185;-71
2021/03/31 09:23:47;;;;;;;8.23;2.97;;;20.50;99.90;;;;;;5049121;28;20214;-71
2021/03/31 09:26:15;;;;;;;10.73;2.17;;;20.50;99.90;;;;;;5052489;28;20172;-72
2021/03/31 09:28:42;;;;;;;8.13;2.33;;;20.60;99.90;;;;;;5049673;28;20267;-71
2021/03/31 09:31:20;;;;;;;9.90;2.40;;;20.60;99.90;;;;;;5053661;28;20255;-71
2021/03/31 09:33:47;;;;;;;7.80;1.70;;;20.50;99.90;;;;;;5045337;28;20180;-71
2021/03/31 09:36:19;;;;;;;6.30;1.60;;;20.50;99.90;;;;;;5054163;28;20195;-71
2021/03/31 09:38:53;;;;;;;9.73;1.90;;;20.40;99.90;;;;;;5054303;28;20191;-71
2021/03/31 09:41:20;;;;;;;8.63;1.97;;;20.40;99.90;;;;;;5054065;28;20176;-71
2021/03/31 09:43:49;;;;;;;6.43;1.90;;;20.40;99.90;;;;;;5052644;28;20302;-71
2021/03/31 09:46:22;;;;;;;10.70;3.27;;;20.40;99.90;;;;;;5052343;28;20235;-71
2021/03/31 09:48:51;;;;;;;12.33;2.93;;;20.40;99.90;;;;;;5047937;28;20184;-71
2021/03/31 09:51:19;;;;;;;7.73;2.10;;;20.40;99.90;;;;;;5053661;28;20172;-72
2021/03/31 09:53:48;;;;;;;8.30;2.00;;;20.40;99.90;;;;;;5046227;28;20255;-71
2021/03/31 09:56:16;;;;;;;11.73;2.43;;;20.40;99.90;;;;;;5053351;28;20184;-70
2021/03/31 09:58:48;;;;;;;7.33;2.30;;;20.40;99.90;;;;;;5050217;28;20547;-72
2021/03/31 10:01:16;;;;;;;8.97;1.87;;;20.30;99.90;;;;;;5053377;28;20195;-72
2021/03/31 10:03:46;;;;;;;9.20;2.30;;;20.40;99.90;;;;;;5044707;28;20286;-71
2021/03/31 10:06:24;;;;;;;9.30;2.30;;;20.40;99.90;;;;;;5050356;28;20267;-72
2021/03/31 10:08:52;;;;;;;7.60;1.90;;;20.40;99.90;;;;;;5053529;28;20340;-71
2021/03/31 10:11:28;;;;;;;11.63;2.10;;;20.40;99.90;;;;;;5052818;28;20197;-71
2021/03/31 10:13:55;;;;;;;9.00;2.20;;;20.40;99.90;;;;;;5042919;28;20183;-70
2021/03/31 10:16:52;;;;;;;14.43;2.10;;;20.40;99.90;;;;;;5052894;28;20180;-71
2021/03/31 10:19:19;;;;;;;9.13;2.03;;;20.40;99.90;;;;;;5038447;28;20210;-71
2021/03/31 10:21:47;;;;;;;8.97;2.10;;;20.50;99.90;;;;;;5053345;28;20207;-70
2021/03/31 10:24:33;;;;;;;7.97;1.70;;;20.40;99.90;;;;;;5044558;28;20264;-71
2021/03/31 10:27:01;;;;;;;10.47;2.17;;;20.40;99.90;;;;;;5048551;28;20226;-71
2021/03/31 10:29:32;;;;;;;7.03;1.87;;;20.40;99.90;;;;;;5052887;28;20548;-70
2021/03/31 10:32:01;;;;;;;8.00;1.93;;;20.30;99.90;;;;;;5051475;28;20188;-71
2021/03/31 10:34:46;;;;;;;12.73;2.07;;;20.30;99.90;;;;;;5043046;28;20214;-70
2021/03/31 10:37:29;;;;;;;9.00;1.80;;;20.30;99.90;;;;;;5049994;28;20191;-71
2021/03/31 10:53:38;;;;;;;13.33;2.17;;;20.00;99.90;;;;;;5049733;28;20188;-71
2021/03/31 10:56:06;;;;;;;10.93;1.83;;;20.00;99.90;;;;;;5052555;28;20591;-70
2021/03/31 10:58:33;;;;;;;8.73;2.83;;;20.00;99.90;;;;;;5052281;28;20180;-69
2021/03/31 11:01:01;;;;;;;10.60;4.97;;;20.00;99.90;;;;;;5052628;28;20182;-70
2021/03/31 11:03:28;;;;;;;15.23;2.83;;;20.00;99.90;;;;;;5052581;28;20204;-72
2021/03/31 11:05:56;;;;;;;10.33;2.13;;;20.00;99.90;;;;;;5051545;28;20184;-71
2021/03/31 11:08:24;;;;;;;12.40;2.00;;;20.00;99.90;;;;;;5051033;28;20190;-70
2021/03/31 11:10:52;;;;;;;8.60;2.63;;;20.00;99.90;;;;;;5050529;28;20188;-71
2021/03/31 11:13:19;;;;;;;7.30;1.80;;;20.00;99.90;;;;;;5039265;28;20229;-71
2021/03/31 11:15:46;;;;;;;18.57;2.70;;;20.00;99.90;;;;;;5043628;28;20176;-71
2021/03/31 11:26:20;;;;;;;11.80;2.70;;;19.70;99.90;;;;;;5039234;28;20669;-69
2021/03/31 11:28:47;;;;;;;11.63;2.77;;;19.60;99.90;;;;;;5052238;28;20175;-69
2021/03/31 11:31:14;;;;;;;8.73;2.70;;;19.60;99.90;;;;;;5052287;28;20222;-69
2021/03/31 11:33:42;;;;;;;9.50;2.60;;;19.40;99.90;;;;;;5052359;28;20668;-69
2021/03/31 11:36:10;;;;;;;12.43;3.00;;;19.10;99.90;;;;;;5052222;28;20183;-71
2021/03/31 11:38:37;;;;;;;13.67;3.73;;;18.90;99.90;;;;;;5052113;28;20637;-71
2021/03/31 11:41:08;;;;;;;17.57;3.10;;;18.80;99.90;;;;;;5052332;28;20176;-71
2021/03/31 11:43:35;;;;;;;12.33;3.00;;;18.80;99.90;;;;;;5033359;28;20249;-71
2021/03/31 11:46:03;;;;;;;12.67;3.63;;;18.70;99.90;;;;;;5051658;28;20692;-69
2021/03/31 11:48:31;;;;;;;10.20;3.20;;;18.50;99.90;;;;;;5051199;28;20183;-71
2021/03/31 11:50:58;;;;;;;14.43;4.13;;;18.40;99.90;;;;;;5052265;28;20648;-71
2021/03/31 11:53:29;;;;;;;13.47;3.67;;;18.30;99.90;;;;;;5052121;28;20203;-70
2021/03/31 11:55:57;;;;;;;15.83;3.60;;;18.20;99.90;;;;;;5051999;28;20175;-69
2021/03/31 11:58:26;;;;;;;7.83;3.17;;;18.20;99.90;;;;;;5050701;28;20172;-70
2021/03/31 12:00:53;;;;;;;8.87;2.83;;;18.20;99.90;;;;;;5051544;28;20595;-68
2021/03/31 12:03:22;;;;;;;14.30;2.83;;;18.20;99.90;;;;;;5051763;28;20196;-70
2021/03/31 12:05:50;;;;;;;13.67;3.17;;;18.00;99.90;;;;;;5056035;28;20267;-68
2021/03/31 12:08:19;;;;;;;12.10;3.50;;;18.00;99.90;;;;;;5055514;28;20641;-69
2021/03/31 12:10:46;;;;;;;14.07;3.70;;;17.90;99.90;;;;;;5052469;28;20670;-69
2021/03/31 12:13:14;;;;;;;11.40;3.53;;;17.90;99.90;;;;;;5046976;28;20180;-69
2021/03/31 12:15:41;;;;;;;8.93;3.07;;;17.90;99.90;;;;;;5055224;28;20177;-69
2021/03/31 12:18:08;;;;;;;17.17;3.77;;;17.90;99.90;;;;;;5055807;28;20653;-71
2021/03/31 12:20:36;;;;;;;13.53;3.77;;;18.00;99.90;;;;;;5054409;28;20622;-70
2021/03/31 12:23:03;;;;;;;14.27;3.57;;;18.00;99.90;;;;;;5055337;28;20196;-69
2021/03/31 12:25:31;;;;;;;8.07;3.33;;;17.90;99.90;;;;;;5055321;28;20180;-70
2021/03/31 12:28:00;;;;;;;10.93;3.13;;;18.00;99.90;;;;;;5055499;28;20172;-70
2021/03/31 12:30:28;;;;;;;21.33;3.90;;;18.00;99.90;;;;;;5054261;28;20637;-71
2021/03/31 12:32:56;;;;;;;10.10;3.17;;;18.00;99.90;;;;;;5054723;28;20207;-70
2021/03/31 12:35:24;;;;;;;10.03;3.67;;;17.90;99.90;;;;;;5055720;28;20168;-71
2021/03/31 12:37:51;;;;;;;14.03;3.23;;;18.00;99.90;;;;;;5055556;28;20244;-70
2021/03/31 12:40:19;;;;;;;14.37;3.90;;;18.00;99.90;;;;;;5050128;28;20191;-71
2021/03/31 12:42:46;;;;;;;12.30;3.03;;;18.00;99.90;;;;;;5047570;28;20214;-70
2021/03/31 12:45:14;;;;;;;9.83;3.17;;;17.90;99.90;;;;;;5054635;28;20371;-71
2021/03/31 12:47:42;;;;;;;11.00;2.97;;;17.90;99.90;;;;;;5055127;28;20176;-70
2021/03/31 12:50:15;;;;;;;14.50;3.10;;;17.80;99.90;;;;;;5054829;28;20201;-70
2021/03/31 12:52:47;;;;;;;11.27;3.33;;;17.80;99.90;;;;;;5047041;28;20592;-71
2021/03/31 12:55:18;;;;;;;9.20;3.20;;;17.90;99.90;;;;;;5049009;28;20206;-71
2021/03/31 12:57:47;;;;;;;16.63;3.80;;;17.90;99.90;;;;;;5049198;28;20188;-70
2021/03/31 13:00:17;;;;;;;12.70;3.13;;;17.90;99.90;;;;;;5054568;28;20187;-69
2021/03/31 13:02:47;;;;;;;14.83;3.00;;;17.90;99.90;;;;;;5052079;28;20218;-70
2021/03/31 13:05:14;;;;;;;10.43;2.97;;;17.90;99.90;;;;;;5054644;28;20549;-71
2021/03/31 13:07:42;;;;;;;8.37;3.03;;;17.90;99.90;;;;;;5054683;28;20298;-70
2021/03/31 13:10:10;;;;;;;10.40;2.70;;;17.90;99.90;;;;;;5054241;28;20188;-70
2021/03/31 13:12:47;;;;;;;11.20;2.83;;;17.80;99.90;;;;;;5054192;28;20207;-71
2021/03/31 13:15:34;;;;;;;18.80;3.57;;;17.90;99.90;;;;;;5054118;28;20294;-70
2021/03/31 13:31:52;;;;;;;13.20;3.27;;;17.90;99.90;;;;;;5029580;28;20196;-72
2021/03/31 13:34:22;;;;;;;13.17;4.33;;;18.00;99.90;;;;;;5053852;28;20680;-71
2021/03/31 13:37:01;;;;;;;10.37;3.43;;;17.90;99.90;;;;;;5053903;28;20270;-70
2021/03/31 13:39:36;;;;;;;10.27;3.87;;;18.00;99.90;;;;;;5054085;28;20270;-70
2021/03/31 13:42:04;;;;;;;11.17;3.40;;;18.10;99.90;;;;;;5053736;28;20215;-71